createdAt,value
2022-12-22T00:00:56.435Z,23.88
2022-12-22T00:01:56.866Z,23.87
2022-12-22T00:02:57.160Z,23.87
2022-12-22T00:03:57.651Z,23.88
2022-12-22T00:04:57.229Z,23.87
2022-12-22T00:05:57.741Z,23.90
2022-12-22T00:06:56.905Z,23.88
2022-12-22T00:07:56.331Z,23.85
2022-12-22T00:09:01.908Z,23.85
2022-12-22T00:09:57.310Z,23.87
2022-12-22T00:10:56.341Z,23.88
2022-12-22T00:11:56.640Z,23.84
2022-12-22T00:12:56.176Z,23.87
2022-12-22T00:13:56.086Z,23.85
2022-12-22T00:14:56.620Z,23.85
2022-12-22T00:15:56.665Z,23.85
2022-12-22T00:16:56.908Z,23.85
2022-12-22T00:17:56.579Z,23.84
2022-12-22T00:18:57.253Z,23.87
2022-12-22T00:19:56.077Z,23.88
2022-12-22T00:20:56.349Z,23.84
2022-12-22T00:21:56.610Z,23.84
2022-12-22T00:22:56.335Z,23.83
2022-12-22T00:23:56.239Z,23.84
2022-12-22T00:24:56.215Z,23.83
2022-12-22T00:25:56.569Z,23.84
2022-12-22T00:26:57.153Z,23.83
2022-12-22T00:27:56.548Z,23.84
2022-12-22T00:28:56.211Z,23.83
2022-12-22T00:29:56.024Z,23.85
2022-12-22T00:30:56.395Z,23.80
2022-12-22T00:31:55.993Z,23.83
2022-12-22T00:32:56.953Z,23.83
2022-12-22T00:33:55.807Z,23.80
2022-12-22T00:34:56.337Z,23.83
2022-12-22T00:35:55.819Z,23.80
2022-12-22T00:36:56.201Z,23.79
2022-12-22T00:37:55.903Z,23.80
2022-12-22T00:38:56.613Z,23.80
2022-12-22T00:39:56.001Z,23.79
2022-12-22T00:40:55.804Z,23.80
2022-12-22T00:41:57.220Z,23.78
2022-12-22T00:42:57.063Z,23.78
2022-12-22T00:43:55.777Z,23.80
2022-12-22T00:44:56.300Z,23.79
2022-12-22T00:45:56.859Z,23.80
2022-12-22T00:46:55.816Z,23.78
2022-12-22T00:47:55.972Z,23.79
2022-12-22T00:48:55.881Z,23.79
2022-12-22T00:49:55.846Z,23.79
2022-12-22T00:50:56.209Z,23.80
2022-12-22T00:51:55.849Z,23.78
2022-12-22T00:52:56.245Z,23.78
2022-12-22T00:53:55.908Z,23.76
2022-12-22T00:54:56.166Z,23.79
2022-12-22T00:55:56.732Z,23.80
2022-12-22T00:56:56.266Z,23.79
2022-12-22T00:57:55.873Z,23.79
2022-12-22T00:58:55.853Z,23.83
2022-12-22T00:59:56.362Z,23.80
2022-12-22T01:00:55.594Z,23.79
2022-12-22T01:01:56.035Z,23.78
2022-12-22T01:02:55.985Z,23.78
2022-12-22T01:03:55.894Z,23.79
2022-12-22T01:04:55.639Z,23.80
2022-12-22T01:05:56.880Z,23.78
2022-12-22T01:06:55.859Z,23.79
2022-12-22T01:07:56.286Z,23.79
2022-12-22T01:08:55.912Z,23.79
2022-12-22T01:09:55.323Z,23.79
2022-12-22T01:10:55.742Z,23.80
2022-12-22T01:11:55.337Z,23.80
2022-12-22T01:12:55.878Z,23.79
2022-12-22T01:13:56.031Z,23.78
2022-12-22T01:14:55.601Z,23.79
2022-12-22T01:15:56.430Z,23.78
2022-12-22T01:16:55.587Z,23.80
2022-12-22T01:17:56.384Z,23.80
2022-12-22T01:18:55.651Z,23.79
2022-12-22T01:19:55.298Z,23.80
2022-12-22T01:20:55.838Z,23.79
2022-12-22T01:21:55.840Z,23.79
2022-12-22T01:22:56.119Z,23.83
2022-12-22T01:23:55.126Z,23.83
2022-12-22T01:24:55.813Z,23.78
2022-12-22T01:26:06.858Z,23.78
2022-12-22T01:26:55.913Z,23.79
2022-12-22T01:27:55.119Z,23.83
2022-12-22T01:28:55.534Z,23.80
2022-12-22T01:29:55.272Z,23.80
2022-12-22T01:30:56.758Z,23.84
2022-12-22T01:31:55.772Z,23.80
2022-12-22T01:32:55.340Z,23.79
2022-12-22T01:33:55.182Z,23.79
2022-12-22T01:34:55.249Z,23.79
2022-12-22T01:35:55.234Z,23.79
2022-12-22T01:36:55.807Z,23.80
2022-12-22T01:37:55.208Z,23.79
2022-12-22T01:38:56.062Z,23.83
2022-12-22T01:39:54.995Z,23.79
2022-12-22T01:40:55.651Z,23.83
2022-12-22T01:41:55.437Z,23.79
2022-12-22T01:42:54.918Z,23.83
2022-12-22T01:43:55.111Z,23.80
2022-12-22T01:44:55.780Z,23.80
2022-12-22T01:45:54.844Z,23.80
2022-12-22T01:46:55.097Z,23.80
2022-12-22T01:47:54.763Z,23.80
2022-12-22T01:48:54.954Z,23.79
2022-12-22T01:50:03.261Z,23.83
2022-12-22T01:50:54.914Z,23.83
2022-12-22T01:51:54.943Z,23.80
2022-12-22T01:52:55.718Z,23.79
2022-12-22T01:53:58.137Z,23.83
2022-12-22T01:54:54.947Z,23.79
2022-12-22T01:55:54.836Z,23.79
2022-12-22T01:56:54.889Z,23.79
2022-12-22T01:57:55.740Z,23.80
2022-12-22T01:58:54.691Z,23.80
2022-12-22T01:59:55.236Z,23.79
2022-12-22T02:00:54.672Z,23.80
2022-12-22T02:01:54.851Z,23.78
2022-12-22T02:02:55.059Z,23.78
2022-12-22T02:03:54.627Z,23.79
2022-12-22T02:04:54.946Z,23.80
2022-12-22T02:05:55.865Z,23.80
2022-12-22T02:07:00.005Z,23.80
2022-12-22T02:07:55.692Z,23.80
2022-12-22T02:08:54.579Z,23.80
2022-12-22T02:09:54.710Z,23.79
2022-12-22T02:10:54.535Z,23.76
2022-12-22T02:11:54.462Z,23.79
2022-12-22T02:12:54.589Z,23.80
2022-12-22T02:13:54.930Z,23.79
2022-12-22T02:14:54.793Z,23.79
2022-12-22T02:15:54.586Z,23.78
2022-12-22T02:16:54.807Z,23.79
2022-12-22T02:17:55.403Z,23.78
2022-12-22T02:18:54.437Z,23.79
2022-12-22T02:19:54.530Z,23.79
2022-12-22T02:20:54.530Z,23.79
2022-12-22T02:21:54.346Z,23.78
2022-12-22T02:22:54.945Z,23.78
2022-12-22T02:23:54.964Z,23.79
2022-12-22T02:24:54.590Z,23.80
2022-12-22T02:25:54.744Z,23.80
2022-12-22T02:26:54.732Z,23.80
2022-12-22T02:27:54.339Z,23.79
2022-12-22T02:28:54.379Z,23.78
2022-12-22T02:29:54.641Z,23.79
2022-12-22T02:30:54.591Z,23.79
2022-12-22T02:31:54.912Z,23.79
2022-12-22T02:32:54.936Z,23.76
2022-12-22T02:33:54.459Z,23.80
2022-12-22T02:34:54.458Z,23.79
2022-12-22T02:35:55.414Z,23.79
2022-12-22T02:36:54.212Z,23.76
2022-12-22T02:37:54.819Z,23.76
2022-12-22T02:38:54.373Z,23.78
2022-12-22T02:39:54.608Z,23.78
2022-12-22T02:40:54.522Z,23.79
2022-12-22T02:41:54.208Z,23.76
2022-12-22T02:42:54.508Z,23.79
2022-12-22T02:43:54.737Z,23.75
2022-12-22T02:44:54.717Z,23.76
2022-12-22T02:45:54.487Z,23.76
2022-12-22T02:46:54.256Z,23.76
2022-12-22T02:47:54.293Z,23.78
2022-12-22T02:48:54.160Z,23.75
2022-12-22T02:49:54.455Z,23.79
2022-12-22T02:50:54.473Z,23.76
2022-12-22T02:51:54.278Z,23.76
2022-12-22T02:52:53.942Z,23.76
2022-12-22T02:53:53.892Z,23.76
2022-12-22T02:54:53.867Z,23.73
2022-12-22T02:55:54.861Z,23.75
2022-12-22T02:56:54.229Z,23.75
2022-12-22T02:57:54.216Z,23.75
2022-12-22T02:58:54.091Z,23.76
2022-12-22T02:59:54.102Z,23.75
2022-12-22T03:00:54.008Z,23.75
2022-12-22T03:01:54.800Z,23.78
2022-12-22T03:02:54.354Z,23.76
2022-12-22T03:03:54.200Z,23.75
2022-12-22T03:04:54.230Z,23.76
2022-12-22T03:05:54.105Z,23.75
2022-12-22T03:06:54.048Z,23.75
2022-12-22T03:07:54.471Z,23.76
2022-12-22T03:08:54.056Z,23.75
2022-12-22T03:09:53.636Z,23.75
2022-12-22T03:10:53.839Z,23.73
2022-12-22T03:11:53.640Z,23.73
2022-12-22T03:12:54.231Z,23.75
2022-12-22T03:13:53.893Z,23.73
2022-12-22T03:14:53.750Z,23.76
2022-12-22T03:15:53.663Z,23.73
2022-12-22T03:16:53.623Z,23.72
2022-12-22T03:17:53.845Z,23.72
2022-12-22T03:18:54.597Z,23.75
2022-12-22T03:19:54.351Z,23.73
2022-12-22T03:20:53.521Z,23.72
2022-12-22T03:21:54.075Z,23.75
2022-12-22T03:22:53.765Z,23.75
2022-12-22T03:24:02.104Z,23.75
2022-12-22T03:24:53.592Z,23.78
2022-12-22T03:25:53.844Z,23.75
2022-12-22T03:26:54.645Z,23.73
2022-12-22T03:27:53.909Z,23.73
2022-12-22T03:28:53.615Z,23.75
2022-12-22T03:29:54.278Z,23.76
2022-12-22T03:30:53.571Z,23.76
2022-12-22T03:31:53.863Z,23.73
2022-12-22T03:32:53.754Z,23.75
2022-12-22T03:33:53.464Z,23.72
2022-12-22T03:34:53.814Z,23.76
2022-12-22T03:35:53.487Z,23.75
2022-12-22T03:36:53.758Z,23.76
2022-12-22T03:37:53.788Z,23.76
2022-12-22T03:38:53.635Z,23.75
2022-12-22T03:39:54.079Z,23.73
2022-12-22T03:40:53.966Z,23.76
2022-12-22T03:41:53.718Z,23.75
2022-12-22T03:42:53.984Z,23.76
2022-12-22T03:43:53.418Z,23.75
2022-12-22T03:44:53.431Z,23.75
2022-12-22T03:45:53.102Z,23.78
2022-12-22T03:46:53.413Z,23.78
2022-12-22T03:47:53.398Z,23.73
2022-12-22T03:48:53.386Z,23.78
2022-12-22T03:49:53.591Z,23.78
2022-12-22T03:50:53.431Z,23.73
2022-12-22T03:51:53.374Z,23.75
2022-12-22T03:52:53.992Z,23.76
2022-12-22T03:53:53.307Z,23.76
2022-12-22T03:54:53.130Z,23.75
2022-12-22T03:55:53.467Z,23.75
2022-12-22T03:56:53.113Z,23.78
2022-12-22T03:57:53.618Z,23.75
2022-12-22T03:58:53.123Z,23.75
2022-12-22T03:59:54.511Z,23.79
2022-12-22T04:00:53.683Z,23.75
2022-12-22T04:01:53.486Z,23.75
2022-12-22T04:02:53.745Z,23.79
2022-12-22T04:03:53.168Z,23.73
2022-12-22T04:04:53.637Z,23.76
2022-12-22T04:05:53.329Z,23.75
2022-12-22T04:06:53.628Z,23.75
2022-12-22T04:07:53.661Z,23.76
2022-12-22T04:08:53.239Z,23.78
2022-12-22T04:09:53.770Z,23.75
2022-12-22T04:10:52.817Z,23.78
2022-12-22T04:11:54.109Z,23.76
2022-12-22T04:12:53.197Z,23.76
2022-12-22T04:13:53.331Z,23.75
2022-12-22T04:14:53.506Z,23.76
2022-12-22T04:15:53.360Z,23.78
2022-12-22T04:16:52.825Z,23.76
2022-12-22T04:17:52.805Z,23.79
2022-12-22T04:18:52.763Z,23.79
2022-12-22T04:19:53.961Z,23.75
2022-12-22T04:20:52.804Z,23.76
2022-12-22T04:21:52.738Z,23.76
2022-12-22T04:22:52.838Z,23.76
2022-12-22T04:23:53.394Z,23.78
2022-12-22T04:24:53.507Z,23.78
2022-12-22T04:25:53.774Z,23.75
2022-12-22T04:26:52.867Z,23.76
2022-12-22T04:27:52.936Z,23.76
2022-12-22T04:28:52.823Z,23.76
2022-12-22T04:29:53.304Z,23.75
2022-12-22T04:30:52.712Z,23.79
2022-12-22T04:31:57.468Z,23.78
2022-12-22T04:32:52.467Z,23.75
2022-12-22T04:33:52.723Z,23.75
2022-12-22T04:34:52.934Z,23.78
2022-12-22T04:35:52.582Z,23.78
2022-12-22T04:36:53.159Z,23.78
2022-12-22T04:37:53.522Z,23.76
2022-12-22T04:38:52.559Z,23.78
2022-12-22T04:39:53.583Z,23.78
2022-12-22T04:40:52.551Z,23.78
2022-12-22T04:41:52.526Z,23.78
2022-12-22T04:42:54.081Z,23.78
2022-12-22T04:43:53.144Z,23.76
2022-12-22T04:44:52.685Z,23.76
2022-12-22T04:45:53.094Z,23.76
2022-12-22T04:46:52.553Z,23.76
2022-12-22T04:47:52.904Z,23.75
2022-12-22T04:48:57.831Z,23.73
2022-12-22T04:49:53.759Z,23.75
2022-12-22T04:50:53.492Z,23.73
2022-12-22T04:51:52.425Z,23.76
2022-12-22T04:52:53.662Z,23.73
2022-12-22T04:53:52.449Z,23.76
2022-12-22T04:54:52.467Z,23.73
2022-12-22T04:55:53.562Z,23.76
2022-12-22T04:56:52.524Z,23.73
2022-12-22T04:57:52.356Z,23.76
2022-12-22T04:58:52.353Z,23.73
2022-12-22T04:59:52.748Z,23.76
2022-12-22T05:00:52.293Z,23.75
2022-12-22T05:01:56.657Z,23.73
2022-12-22T05:02:54.387Z,23.76
2022-12-22T05:03:52.122Z,23.76
2022-12-22T05:04:52.103Z,23.76
2022-12-22T05:05:52.226Z,23.75
2022-12-22T05:06:52.215Z,23.76
2022-12-22T05:07:53.442Z,23.76
2022-12-22T05:08:52.654Z,23.76
2022-12-22T05:09:52.049Z,23.75
2022-12-22T05:10:52.129Z,23.78
2022-12-22T05:11:52.116Z,23.73
2022-12-22T05:12:52.314Z,23.78
2022-12-22T05:13:52.231Z,23.73
2022-12-22T05:14:52.062Z,23.76
2022-12-22T05:15:52.307Z,23.73
2022-12-22T05:16:52.072Z,23.75
2022-12-22T05:17:52.899Z,23.75
2022-12-22T05:18:52.215Z,23.75
2022-12-22T05:19:52.787Z,23.73
2022-12-22T05:20:51.874Z,23.75
2022-12-22T05:21:52.186Z,23.73
2022-12-22T05:22:52.736Z,23.75
2022-12-22T05:23:52.093Z,23.73
2022-12-22T05:24:52.314Z,23.76
2022-12-22T05:25:51.899Z,23.73
2022-12-22T05:26:51.823Z,23.73
2022-12-22T05:27:51.834Z,23.73
2022-12-22T05:28:51.792Z,23.73
2022-12-22T05:29:51.976Z,23.75
2022-12-22T05:30:52.275Z,23.75
2022-12-22T05:31:52.822Z,23.76
2022-12-22T05:32:52.265Z,23.72
2022-12-22T05:33:54.860Z,23.73
2022-12-22T05:34:52.050Z,23.70
2022-12-22T05:35:52.335Z,23.73
2022-12-22T05:36:51.898Z,23.75
2022-12-22T05:37:52.211Z,23.70
2022-12-22T05:38:52.487Z,23.73
2022-12-22T05:39:51.908Z,23.70
2022-12-22T05:40:55.600Z,23.70
2022-12-22T05:41:53.751Z,23.72
2022-12-22T05:42:51.947Z,23.72
2022-12-22T05:43:53.064Z,23.70
2022-12-22T05:44:52.189Z,23.70
2022-12-22T05:45:52.481Z,23.72
2022-12-22T05:46:51.823Z,23.69
2022-12-22T05:47:52.490Z,23.70
2022-12-22T05:48:51.805Z,23.69
2022-12-22T05:49:51.760Z,23.70
2022-12-22T05:50:51.887Z,23.70
2022-12-22T05:51:51.699Z,23.72
2022-12-22T05:52:51.900Z,23.73
2022-12-22T05:53:53.755Z,23.70
2022-12-22T05:54:52.073Z,23.73
2022-12-22T05:55:51.950Z,23.72
2022-12-22T05:56:51.313Z,23.75
2022-12-22T05:57:51.797Z,23.70
2022-12-22T05:58:52.277Z,23.72
2022-12-22T05:59:52.223Z,23.70
2022-12-22T06:00:51.586Z,23.73
2022-12-22T06:01:51.723Z,23.70
2022-12-22T06:02:51.477Z,23.70
2022-12-22T06:03:56.241Z,23.73
2022-12-22T06:04:53.017Z,23.75
2022-12-22T06:05:51.930Z,23.72
2022-12-22T06:06:51.810Z,23.73
2022-12-22T06:07:51.480Z,23.70
2022-12-22T06:08:51.882Z,23.73
2022-12-22T06:09:51.932Z,23.75
2022-12-22T06:10:52.761Z,23.75
2022-12-22T06:11:51.219Z,23.72
2022-12-22T06:12:51.202Z,23.72
2022-12-22T06:13:52.656Z,23.72
2022-12-22T06:14:52.189Z,23.73
2022-12-22T06:15:51.467Z,23.73
2022-12-22T06:16:51.273Z,23.75
2022-12-22T06:17:51.284Z,23.73
2022-12-22T06:18:51.548Z,23.72
2022-12-22T06:19:51.164Z,23.73
2022-12-22T06:20:51.807Z,23.73
2022-12-22T06:21:51.251Z,23.73
2022-12-22T06:22:51.802Z,23.73
2022-12-22T06:23:52.031Z,23.76
2022-12-22T06:24:51.047Z,23.78
2022-12-22T06:25:52.442Z,23.76
2022-12-22T06:26:51.971Z,23.75
2022-12-22T06:27:51.260Z,23.75
2022-12-22T06:28:51.189Z,23.76
2022-12-22T06:29:51.590Z,23.73
2022-12-22T06:30:51.694Z,23.73
2022-12-22T06:31:52.684Z,23.76
2022-12-22T06:32:51.682Z,23.75
2022-12-22T06:33:51.219Z,23.75
2022-12-22T06:34:51.619Z,23.76
2022-12-22T06:35:57.952Z,23.76
2022-12-22T06:36:52.829Z,23.73
2022-12-22T06:37:51.520Z,23.75
2022-12-22T06:38:51.012Z,23.75
2022-12-22T06:39:51.116Z,23.73
2022-12-22T06:40:51.395Z,23.73
2022-12-22T06:41:52.201Z,23.75
2022-12-22T06:42:52.212Z,23.76
2022-12-22T06:43:50.767Z,23.73
2022-12-22T06:44:50.899Z,23.75
2022-12-22T06:45:50.639Z,23.75
2022-12-22T06:46:50.912Z,23.72
2022-12-22T06:47:52.271Z,23.75
2022-12-22T06:48:52.082Z,23.78
2022-12-22T06:49:52.868Z,23.73
2022-12-22T06:50:51.451Z,23.76
2022-12-22T06:51:51.312Z,23.73
2022-12-22T06:52:50.867Z,23.76
2022-12-22T06:53:51.516Z,23.78
2022-12-22T06:54:51.674Z,23.80
2022-12-22T06:55:52.265Z,23.80
2022-12-22T06:56:50.847Z,23.80
2022-12-22T06:57:51.493Z,23.80
2022-12-22T06:58:51.181Z,23.80
2022-12-22T06:59:57.265Z,23.83
2022-12-22T07:00:52.300Z,23.83
2022-12-22T07:01:51.288Z,23.79
2022-12-22T07:02:51.198Z,23.79
2022-12-22T07:03:51.229Z,23.80
2022-12-22T07:04:50.988Z,23.79
2022-12-22T07:05:51.307Z,23.79
2022-12-22T07:06:51.821Z,23.83
2022-12-22T07:07:51.314Z,23.80
2022-12-22T07:08:50.645Z,23.83
2022-12-22T07:09:51.741Z,23.78
2022-12-22T07:10:51.094Z,23.78
2022-12-22T07:11:51.336Z,23.78
2022-12-22T07:12:50.653Z,23.76
2022-12-22T07:13:50.967Z,23.75
2022-12-22T07:14:50.654Z,23.78
2022-12-22T07:15:57.575Z,23.79
2022-12-22T07:16:52.822Z,23.76
2022-12-22T07:17:51.908Z,23.78
2022-12-22T07:18:50.851Z,23.76
2022-12-22T07:19:50.997Z,23.78
2022-12-22T07:20:50.320Z,23.76
2022-12-22T07:21:51.897Z,23.78
2022-12-22T07:22:50.980Z,23.76
2022-12-22T07:23:51.903Z,23.79
2022-12-22T07:24:50.901Z,23.73
2022-12-22T07:25:50.374Z,23.78
2022-12-22T07:26:50.350Z,23.76
2022-12-22T07:27:50.393Z,23.75
2022-12-22T07:28:50.677Z,23.75
2022-12-22T07:29:50.672Z,23.76
2022-12-22T07:30:50.292Z,23.73
2022-12-22T07:31:50.310Z,23.76
2022-12-22T07:32:50.203Z,23.76
2022-12-22T07:33:50.462Z,23.76
2022-12-22T07:34:50.838Z,23.75
2022-12-22T07:35:50.471Z,23.73
2022-12-22T07:36:50.519Z,23.75
2022-12-22T07:37:50.456Z,23.75
2022-12-22T07:38:50.191Z,23.73
2022-12-22T07:39:50.488Z,23.76
2022-12-22T07:40:52.020Z,23.72
2022-12-22T07:41:50.442Z,23.72
2022-12-22T07:42:50.625Z,23.70
2022-12-22T07:43:50.703Z,23.72
2022-12-22T07:44:50.576Z,23.72
2022-12-22T07:45:50.501Z,23.72
2022-12-22T07:46:50.776Z,23.73
2022-12-22T07:47:50.435Z,23.72
2022-12-22T07:48:50.161Z,23.73
2022-12-22T07:49:50.513Z,23.73
2022-12-22T07:50:50.004Z,23.73
2022-12-22T07:51:50.465Z,23.73
2022-12-22T07:52:51.244Z,23.73
2022-12-22T07:53:49.839Z,23.73
2022-12-22T07:54:50.074Z,23.73
2022-12-22T07:55:49.792Z,23.72
2022-12-22T07:56:49.961Z,23.72
2022-12-22T07:57:50.902Z,23.70
2022-12-22T07:58:50.636Z,23.73
2022-12-22T07:59:50.160Z,23.75
2022-12-22T08:00:50.234Z,23.72
2022-12-22T08:01:50.146Z,23.73
2022-12-22T08:02:50.136Z,23.72
2022-12-22T08:03:49.585Z,23.72
2022-12-22T08:04:50.126Z,23.73
2022-12-22T08:05:49.760Z,23.73
2022-12-22T08:06:49.774Z,23.72
2022-12-22T08:07:49.750Z,23.73
2022-12-22T08:08:49.764Z,23.73
2022-12-22T08:09:49.775Z,23.75
2022-12-22T08:10:50.097Z,23.76
2022-12-22T08:11:49.721Z,23.72
2022-12-22T08:12:49.813Z,23.70
2022-12-22T08:13:49.636Z,23.72
2022-12-22T08:14:49.767Z,23.72
2022-12-22T08:15:50.076Z,23.73
2022-12-22T08:16:50.234Z,23.73
2022-12-22T08:17:51.444Z,23.72
2022-12-22T08:18:50.084Z,23.75
2022-12-22T08:19:49.834Z,23.75
2022-12-22T08:20:49.764Z,23.76
2022-12-22T08:21:52.853Z,23.78
2022-12-22T08:22:49.976Z,23.73
2022-12-22T08:23:51.009Z,23.76
2022-12-22T08:24:50.136Z,23.78
2022-12-22T08:25:51.060Z,23.79
2022-12-22T08:26:50.055Z,23.80
2022-12-22T08:27:50.003Z,23.80
2022-12-22T08:28:49.445Z,23.85
2022-12-22T08:29:49.949Z,23.85
2022-12-22T08:30:50.054Z,23.85
2022-12-22T08:31:49.970Z,23.88
2022-12-22T08:32:49.990Z,23.84
2022-12-22T08:33:50.040Z,23.83
2022-12-22T08:34:50.147Z,23.84
2022-12-22T08:35:50.774Z,23.85
2022-12-22T08:36:49.422Z,23.87
2022-12-22T08:37:49.953Z,23.90
2022-12-22T08:38:49.499Z,23.91
2022-12-22T08:39:50.749Z,23.90
2022-12-22T08:40:50.515Z,23.93
2022-12-22T08:41:51.071Z,23.91
2022-12-22T08:42:50.254Z,23.93
2022-12-22T08:43:50.345Z,23.94
2022-12-22T08:44:51.055Z,24.00
2022-12-22T08:45:51.486Z,24.03
2022-12-22T08:46:49.136Z,24.03
2022-12-22T08:47:49.254Z,24.08
2022-12-22T08:48:50.667Z,24.05
2022-12-22T08:49:49.153Z,24.05
2022-12-22T08:50:52.244Z,24.03
2022-12-22T08:51:50.882Z,24.06
2022-12-22T08:52:49.639Z,24.06
2022-12-22T08:54:06.187Z,24.06
2022-12-22T08:54:51.064Z,24.05
2022-12-22T08:55:49.443Z,24.06
2022-12-22T08:56:50.017Z,24.08
2022-12-22T08:57:55.653Z,24.09
2022-12-22T08:58:50.562Z,24.08
2022-12-22T08:59:50.325Z,24.08
2022-12-22T09:00:49.580Z,24.09
2022-12-22T09:01:49.184Z,24.08
2022-12-22T09:02:50.548Z,24.09
2022-12-22T09:03:50.084Z,24.08
2022-12-22T09:04:51.027Z,24.06
2022-12-22T09:05:49.199Z,24.06
2022-12-22T09:06:49.490Z,24.09
2022-12-22T09:07:50.630Z,24.09
2022-12-22T09:08:49.413Z,24.09
2022-12-22T09:09:48.856Z,24.09
2022-12-22T09:10:50.181Z,24.08
2022-12-22T09:11:50.657Z,24.09
2022-12-22T09:12:49.325Z,24.12
2022-12-22T09:13:50.624Z,24.10
2022-12-22T09:14:50.884Z,24.12
2022-12-22T09:15:48.997Z,24.12
2022-12-22T09:16:49.539Z,24.12
2022-12-22T09:17:50.111Z,24.10
2022-12-22T09:18:50.606Z,24.10
2022-12-22T09:19:49.499Z,24.10
2022-12-22T09:20:49.277Z,24.15
2022-12-22T09:21:48.732Z,24.12
2022-12-22T09:22:49.924Z,24.12
2022-12-22T09:23:50.000Z,24.10
2022-12-22T09:24:50.566Z,24.12
2022-12-22T09:25:49.172Z,24.12
2022-12-22T09:26:49.213Z,24.10
2022-12-22T09:27:49.649Z,24.09
2022-12-22T09:28:50.705Z,24.10
2022-12-22T09:29:48.683Z,24.10
2022-12-22T09:30:49.307Z,24.10
2022-12-22T09:31:50.805Z,24.09
2022-12-22T09:32:48.783Z,24.09
2022-12-22T09:33:49.101Z,24.10
2022-12-22T09:34:48.775Z,24.10
2022-12-22T09:35:48.465Z,24.10
2022-12-22T09:36:48.585Z,24.10
2022-12-22T09:37:52.774Z,24.13
2022-12-22T09:38:48.386Z,24.10
2022-12-22T09:39:48.390Z,24.10
2022-12-22T09:40:48.571Z,24.10
2022-12-22T09:41:49.238Z,24.12
2022-12-22T09:42:48.184Z,24.13
2022-12-22T09:43:49.956Z,24.13
2022-12-22T09:44:48.848Z,24.15
2022-12-22T09:45:48.277Z,24.12
2022-12-22T09:46:48.647Z,24.12
2022-12-22T09:47:48.614Z,24.10
2022-12-22T09:48:50.141Z,24.12
2022-12-22T09:49:50.214Z,24.09
2022-12-22T09:50:48.659Z,24.12
2022-12-22T09:51:49.633Z,24.12
2022-12-22T09:52:49.664Z,24.12
2022-12-22T09:53:49.420Z,24.12
2022-12-22T09:54:48.517Z,24.10
2022-12-22T09:55:49.041Z,24.10
2022-12-22T09:56:48.317Z,24.12
2022-12-22T09:57:48.871Z,24.10
2022-12-22T09:58:48.390Z,24.12
2022-12-22T09:59:49.129Z,24.09
2022-12-22T10:00:48.958Z,24.10
2022-12-22T10:01:49.800Z,24.12
2022-12-22T10:02:48.516Z,24.10
2022-12-22T10:03:48.429Z,24.13
2022-12-22T10:04:48.521Z,24.13
2022-12-22T10:05:48.955Z,24.15
2022-12-22T10:06:49.843Z,24.13
2022-12-22T10:07:48.313Z,24.12
2022-12-22T10:08:48.567Z,24.12
2022-12-22T10:09:51.309Z,24.15
2022-12-22T10:10:48.459Z,24.12
2022-12-22T10:11:48.928Z,24.15
2022-12-22T10:12:49.936Z,24.15
2022-12-22T10:13:48.211Z,24.15
2022-12-22T10:14:48.337Z,24.15
2022-12-22T10:15:48.350Z,24.16
2022-12-22T10:16:48.245Z,24.18
2022-12-22T10:17:47.740Z,24.16
2022-12-22T10:18:47.693Z,24.20
2022-12-22T10:19:48.611Z,24.16
2022-12-22T10:20:47.965Z,24.18
2022-12-22T10:21:47.724Z,24.20
2022-12-22T10:22:47.982Z,24.21
2022-12-22T10:23:48.740Z,24.20
2022-12-22T10:24:47.780Z,24.21
2022-12-22T10:26:26.738Z,24.21
2022-12-22T10:26:49.102Z,24.21
2022-12-22T10:27:51.451Z,24.20
2022-12-22T10:28:47.693Z,24.20
2022-12-22T10:29:48.128Z,24.24
2022-12-22T10:30:48.226Z,24.21
2022-12-22T10:31:48.498Z,24.22
2022-12-22T10:32:48.174Z,24.24
2022-12-22T10:33:49.320Z,24.27
2022-12-22T10:34:48.681Z,24.32
2022-12-22T10:35:48.097Z,24.39
2022-12-22T10:36:48.071Z,24.39
2022-12-22T10:37:47.735Z,24.43
2022-12-22T10:38:48.723Z,24.39
2022-12-22T10:39:47.569Z,24.42
2022-12-22T10:40:47.929Z,24.43
2022-12-22T10:41:48.530Z,24.45
2022-12-22T10:42:49.559Z,24.45
2022-12-22T10:43:47.479Z,24.46
2022-12-22T10:44:47.398Z,24.49
2022-12-22T10:45:48.806Z,24.52
2022-12-22T10:46:48.585Z,24.58
2022-12-22T10:47:48.675Z,24.60
2022-12-22T10:48:48.245Z,24.62
2022-12-22T10:50:19.635Z,24.69
2022-12-22T10:51:20.809Z,24.68
2022-12-22T10:52:23.977Z,24.76
2022-12-22T10:53:20.166Z,24.78
2022-12-22T10:54:19.469Z,24.85
2022-12-22T10:55:20.088Z,24.87
2022-12-22T10:56:20.182Z,24.85
2022-12-22T10:57:20.549Z,24.85
2022-12-22T10:58:20.239Z,24.90
2022-12-22T10:59:20.049Z,24.90
2022-12-22T11:00:20.437Z,24.91
2022-12-22T11:01:19.618Z,24.93
2022-12-22T11:02:20.195Z,24.95
2022-12-22T11:03:24.445Z,24.98
2022-12-22T11:04:20.448Z,24.99
2022-12-22T11:05:18.915Z,24.99
2022-12-22T11:06:18.846Z,24.99
2022-12-22T11:07:19.563Z,25.00
2022-12-22T11:08:19.392Z,25.02
2022-12-22T11:09:35.529Z,25.00
2022-12-22T11:10:22.144Z,25.02
2022-12-22T11:11:18.864Z,25.05
2022-12-22T11:12:19.846Z,25.02
2022-12-22T11:13:18.811Z,25.02
2022-12-22T11:14:19.529Z,25.08
2022-12-22T11:15:24.499Z,25.03
2022-12-22T11:16:21.394Z,25.09
2022-12-22T11:17:19.643Z,25.10
2022-12-22T11:18:20.791Z,25.14
2022-12-22T11:19:20.547Z,25.13
2022-12-22T11:20:19.141Z,25.10
2022-12-22T11:21:24.106Z,25.14
2022-12-22T11:22:26.997Z,25.15
2022-12-22T11:23:20.376Z,25.18
2022-12-22T11:24:19.681Z,25.20
2022-12-22T11:25:19.109Z,25.21
2022-12-22T11:26:21.260Z,25.20
2022-12-22T11:27:19.222Z,25.21
2022-12-22T11:28:19.835Z,25.18
2022-12-22T11:29:18.440Z,25.21
2022-12-22T11:30:18.989Z,25.21
2022-12-22T11:31:21.891Z,25.21
2022-12-22T11:32:18.736Z,25.21
2022-12-22T11:33:19.906Z,25.21
2022-12-22T11:34:25.401Z,25.23
2022-12-22T11:35:18.685Z,25.20
2022-12-22T11:36:19.626Z,25.24
2022-12-22T11:37:20.952Z,25.20
2022-12-22T11:38:23.168Z,25.17
2022-12-22T11:39:19.595Z,25.17
2022-12-22T11:40:27.111Z,25.15
2022-12-22T11:41:20.320Z,25.14
2022-12-22T11:42:19.810Z,25.10
2022-12-22T11:43:21.354Z,25.10
2022-12-22T11:44:20.663Z,25.13
2022-12-22T11:45:18.173Z,25.09
2022-12-22T11:46:21.593Z,25.10
2022-12-22T11:47:19.786Z,25.08
2022-12-22T11:48:19.353Z,25.08
2022-12-22T11:49:20.622Z,25.08
2022-12-22T11:50:58.141Z,25.06
2022-12-22T11:51:23.844Z,25.05
2022-12-22T11:52:27.314Z,25.03
2022-12-22T11:53:18.535Z,25.00
2022-12-22T11:54:20.525Z,24.98
2022-12-22T11:55:20.257Z,24.99
2022-12-22T11:56:22.946Z,25.00
2022-12-22T11:57:21.225Z,25.00
2022-12-22T11:58:20.514Z,24.98
2022-12-22T11:59:19.019Z,25.02
2022-12-22T12:00:18.970Z,25.00
2022-12-22T12:01:25.571Z,25.02
2022-12-22T12:02:19.604Z,25.00
2022-12-22T12:03:21.106Z,25.00
2022-12-22T12:04:18.614Z,25.00
2022-12-22T12:05:18.862Z,24.96
2022-12-22T12:06:21.610Z,24.98
2022-12-22T12:07:25.447Z,24.98
2022-12-22T12:08:18.869Z,24.99
2022-12-22T12:09:19.748Z,25.05
2022-12-22T12:10:28.329Z,25.08
2022-12-22T12:11:19.676Z,25.09
2022-12-22T12:12:22.615Z,25.13
2022-12-22T12:13:23.498Z,25.17
2022-12-22T12:14:24.734Z,25.18
2022-12-22T12:15:18.075Z,25.23
2022-12-22T12:16:18.037Z,25.25
2022-12-22T12:17:17.614Z,25.24
2022-12-22T12:18:20.499Z,25.25
2022-12-22T12:19:23.148Z,25.28
2022-12-22T12:20:19.730Z,25.36
2022-12-22T12:21:19.830Z,25.38
2022-12-22T12:22:21.633Z,25.39
2022-12-22T12:23:18.828Z,25.42
2022-12-22T12:24:17.417Z,25.40
2022-12-22T12:25:23.799Z,25.42
2022-12-22T12:26:19.781Z,25.43
2022-12-22T12:27:18.130Z,25.46
2022-12-22T12:28:17.536Z,25.50
2022-12-22T12:29:17.731Z,25.51
2022-12-22T12:31:25.959Z,25.51
2022-12-22T12:32:18.984Z,25.51
2022-12-22T12:33:17.412Z,25.52
2022-12-22T12:34:17.484Z,25.52
2022-12-22T12:35:17.536Z,25.58
2022-12-22T12:36:17.625Z,25.54
2022-12-22T12:37:20.264Z,25.57
2022-12-22T12:38:56.396Z,25.58
2022-12-22T12:39:19.000Z,25.58
2022-12-22T12:40:17.545Z,25.64
2022-12-22T12:41:17.192Z,25.64
2022-12-22T12:42:17.752Z,25.64
2022-12-22T12:43:17.109Z,25.62
2022-12-22T12:44:17.522Z,25.67
2022-12-22T12:45:17.243Z,25.69
2022-12-22T12:46:17.434Z,25.70
2022-12-22T12:47:17.755Z,25.70
2022-12-22T12:48:17.069Z,25.69
2022-12-22T12:49:21.744Z,25.65
2022-12-22T12:50:50.976Z,25.67
2022-12-22T12:51:51.655Z,25.62
2022-12-22T12:52:50.814Z,25.61
2022-12-22T12:53:51.014Z,25.61
2022-12-22T12:54:50.935Z,25.61